createdAt,value
2022-10-21T00:04:19.025Z,8.80
2022-10-21T00:06:46.811Z,11.75
2022-10-21T00:09:13.310Z,11.73
2022-10-21T00:11:39.719Z,10.88
2022-10-21T00:14:11.671Z,12.13
2022-10-21T00:16:38.072Z,11.52
2022-10-21T00:19:04.609Z,12.18
2022-10-21T00:21:34.049Z,10.98
2022-10-21T00:24:00.453Z,11.35
2022-10-21T00:26:26.972Z,12.48
2022-10-21T00:28:57.238Z,12.82
2022-10-21T00:31:24.935Z,11.93
2022-10-21T00:33:54.039Z,12.20
2022-10-21T00:36:20.445Z,12.80
2022-10-21T00:38:48.466Z,11.10
2022-10-21T00:41:17.581Z,12.15
2022-10-21T00:44:01.665Z,12.70
2022-10-21T00:46:45.882Z,12.35
2022-10-21T00:49:32.054Z,12.50
2022-10-21T00:52:01.323Z,14.18
2022-10-21T00:54:39.163Z,13.15
2022-10-21T00:57:06.062Z,11.85
2022-10-21T00:59:43.925Z,8.68
2022-10-21T01:02:10.553Z,16.25
2022-10-21T01:04:37.057Z,13.10
2022-10-21T01:07:08.921Z,12.25
2022-10-21T01:09:35.317Z,9.48
2022-10-21T01:12:05.032Z,12.48
2022-10-21T01:14:53.368Z,11.32
2022-10-21T01:17:43.823Z,12.05
2022-10-21T01:20:57.380Z,11.85
2022-10-21T01:23:54.600Z,12.93
2022-10-21T01:27:11.578Z,11.00
2022-10-21T01:32:45.796Z,11.75
2022-10-21T01:35:26.664Z,11.05
2022-10-21T01:38:12.517Z,11.40
2022-10-21T01:41:08.191Z,11.68
2022-10-21T01:43:45.741Z,12.43
2022-10-21T01:46:23.504Z,12.95
2022-10-21T01:48:55.458Z,12.80
2022-10-21T01:51:26.415Z,12.77
2022-10-21T01:54:00.247Z,12.25
2022-10-21T01:56:28.962Z,12.07
2022-10-21T01:58:56.648Z,10.90
2022-10-21T02:01:27.361Z,12.20
2022-10-21T02:03:59.054Z,12.40
2022-10-21T02:06:25.594Z,11.73
2022-10-21T02:08:54.819Z,10.55
2022-10-21T02:11:21.666Z,11.90
2022-10-21T02:14:03.921Z,12.23
2022-10-21T02:16:36.614Z,10.73
2022-10-21T02:19:03.745Z,11.70
2022-10-21T02:21:36.863Z,11.95
2022-10-21T02:24:25.571Z,12.43
2022-10-21T02:26:52.070Z,11.32
2022-10-21T02:29:24.242Z,12.52
2022-10-21T02:32:09.380Z,12.27
2022-10-21T02:34:55.550Z,11.52
2022-10-21T02:37:40.211Z,11.98
2022-10-21T02:40:13.400Z,10.93
2022-10-21T02:42:46.075Z,12.35
2022-10-21T02:45:12.536Z,11.40
2022-10-21T02:47:40.486Z,11.38
2022-10-21T02:50:07.598Z,11.00
2022-10-21T02:52:34.127Z,11.10
2022-10-21T02:55:00.559Z,11.52
2022-10-21T02:57:27.044Z,10.98
2022-10-21T02:59:53.582Z,12.23
2022-10-21T03:02:20.049Z,11.30
2022-10-21T03:04:46.497Z,10.52
2022-10-21T03:07:12.958Z,11.18
2022-10-21T03:09:39.497Z,11.15
2022-10-21T03:12:06.004Z,11.75
2022-10-21T03:14:32.460Z,11.88
2022-10-21T03:16:59.145Z,11.38
2022-10-21T03:19:25.563Z,11.35
2022-10-21T03:21:52.010Z,11.85
2022-10-21T03:24:28.080Z,10.10
2022-10-21T03:26:55.955Z,10.48
2022-10-21T03:29:22.417Z,11.35
2022-10-21T03:31:49.061Z,11.30
2022-10-21T03:34:15.736Z,11.07
2022-10-21T03:36:44.188Z,11.32
2022-10-21T03:39:11.754Z,12.20
2022-10-21T03:41:38.426Z,12.00
2022-10-21T03:44:05.035Z,11.38
2022-10-21T03:46:32.173Z,12.20
2022-10-21T03:49:04.995Z,10.75
2022-10-21T03:51:34.034Z,10.45
2022-10-21T03:54:00.528Z,13.70
2022-10-21T03:56:27.065Z,10.77
2022-10-21T03:58:57.763Z,12.70
2022-10-21T04:01:28.539Z,12.45
2022-10-21T04:03:55.124Z,10.85
2022-10-21T04:06:21.627Z,11.50
2022-10-21T04:08:48.140Z,12.43
2022-10-21T04:11:14.680Z,12.38
2022-10-21T04:13:41.337Z,12.00
2022-10-21T04:16:14.701Z,11.52
2022-10-21T04:18:41.173Z,11.40
2022-10-21T04:21:08.798Z,13.48
2022-10-21T04:23:35.792Z,12.93
2022-10-21T04:26:19.684Z,13.43
2022-10-21T04:28:46.127Z,13.13
2022-10-21T04:31:15.420Z,11.80
2022-10-21T04:33:41.858Z,12.73
2022-10-21T04:36:08.299Z,14.80
2022-10-21T04:38:37.114Z,14.70
2022-10-21T04:41:04.392Z,16.08
2022-10-21T04:43:30.816Z,13.70
2022-10-21T04:46:01.800Z,15.45
2022-10-21T04:48:28.337Z,17.85
2022-10-21T04:50:55.345Z,15.65
2022-10-21T04:53:22.662Z,16.30
2022-10-21T04:55:53.244Z,15.43
2022-10-21T04:58:22.056Z,17.08
2022-10-21T05:00:50.267Z,18.13
2022-10-21T05:03:16.793Z,15.90
2022-10-21T05:05:43.269Z,15.70
2022-10-21T05:08:11.639Z,14.52
2022-10-21T05:10:38.498Z,16.00
2022-10-21T05:13:06.037Z,12.82
2022-10-21T05:15:34.724Z,14.05
2022-10-21T05:18:01.191Z,13.38
2022-10-21T05:20:28.085Z,13.23
2022-10-21T05:22:54.556Z,13.20
2022-10-21T05:25:21.874Z,17.10
2022-10-21T05:27:51.531Z,13.45
2022-10-21T05:30:18.127Z,14.43
2022-10-21T05:32:44.649Z,15.88
2022-10-21T05:35:14.035Z,13.93
2022-10-21T05:37:40.459Z,14.10
2022-10-21T05:40:07.733Z,13.30
2022-10-21T05:42:34.199Z,13.93
2022-10-21T05:45:00.626Z,14.18
2022-10-21T05:47:27.057Z,14.82
2022-10-21T05:49:53.539Z,13.20
2022-10-21T05:52:20.003Z,13.80
2022-10-21T05:54:46.455Z,13.30
2022-10-21T05:57:12.987Z,13.18
2022-10-21T05:59:39.376Z,14.13
2022-10-21T06:02:10.210Z,13.70
2022-10-21T06:04:38.759Z,13.23
2022-10-21T06:07:05.518Z,13.27
2022-10-21T06:09:31.952Z,12.40
2022-10-21T06:11:58.378Z,12.48
2022-10-21T06:14:26.375Z,12.82
2022-10-21T06:16:52.841Z,13.98
2022-10-21T06:19:19.260Z,13.93
2022-10-21T06:21:47.142Z,18.00
2022-10-21T06:24:13.666Z,16.17
2022-10-21T06:26:40.133Z,14.15
2022-10-21T06:29:07.140Z,15.13
2022-10-21T06:31:33.660Z,16.10
2022-10-21T06:34:01.276Z,13.55
2022-10-21T06:36:27.905Z,13.80
2022-10-21T06:38:54.303Z,12.75
2022-10-21T06:41:20.678Z,14.85
2022-10-21T06:43:47.077Z,13.65
2022-10-21T06:46:15.707Z,13.25
2022-10-21T06:48:42.318Z,12.82
2022-10-21T06:51:15.024Z,12.02
2022-10-21T06:53:41.928Z,12.13
2022-10-21T06:56:14.282Z,11.95
2022-10-21T06:58:43.367Z,11.27
2022-10-21T07:01:27.632Z,11.63
2022-10-21T07:04:01.607Z,12.93
2022-10-21T07:06:28.143Z,12.52
2022-10-21T07:08:59.004Z,13.02
2022-10-21T07:11:26.907Z,13.82
2022-10-21T07:13:53.561Z,12.00
2022-10-21T07:16:27.410Z,12.93
2022-10-21T07:18:55.118Z,11.45
2022-10-21T07:21:23.850Z,14.27
2022-10-21T07:23:51.891Z,13.63
2022-10-21T07:26:20.826Z,13.13
2022-10-21T07:28:48.024Z,12.63
2022-10-21T07:31:19.555Z,12.75
2022-10-21T07:33:46.384Z,13.65
2022-10-21T07:36:19.240Z,14.48
2022-10-21T07:38:47.296Z,13.90
2022-10-21T07:41:20.148Z,12.88
2022-10-21T07:43:46.878Z,13.23
2022-10-21T07:46:13.365Z,14.02
2022-10-21T07:48:39.936Z,14.63
2022-10-21T07:51:09.060Z,14.60
2022-10-21T07:53:36.089Z,15.68
2022-10-21T07:56:19.013Z,15.10
2022-10-21T07:58:46.965Z,15.20
2022-10-21T08:01:14.797Z,14.50
2022-10-21T08:03:41.483Z,13.98
2022-10-21T08:06:09.936Z,15.50
2022-10-21T08:08:36.932Z,14.50
2022-10-21T08:11:05.022Z,15.40
2022-10-21T08:13:32.212Z,16.17
2022-10-21T08:15:59.071Z,17.08
2022-10-21T08:18:26.407Z,14.45
2022-10-21T08:20:53.101Z,16.05
2022-10-21T08:23:21.179Z,15.75
2022-10-21T08:25:49.962Z,15.07
2022-10-21T08:28:17.717Z,15.73
2022-10-21T08:30:44.608Z,15.30
2022-10-21T08:33:12.428Z,15.55
2022-10-21T08:35:39.431Z,15.52
2022-10-21T08:40:46.027Z,15.30
2022-10-21T08:43:26.288Z,13.77
2022-10-21T08:46:00.718Z,13.95
2022-10-21T08:48:35.120Z,14.90
2022-10-21T08:51:03.836Z,14.10
2022-10-21T08:53:34.652Z,12.00
2022-10-21T08:56:13.478Z,10.75
2022-10-21T08:58:44.758Z,10.07
2022-10-21T09:01:37.832Z,9.85
2022-10-21T09:04:04.295Z,8.13
2022-10-21T09:07:00.218Z,7.40
2022-10-21T09:09:35.722Z,5.80
2022-10-21T09:12:17.519Z,6.95
2022-10-21T09:15:11.365Z,5.38
2022-10-21T09:17:44.012Z,5.57
2022-10-21T09:20:35.408Z,5.82
2022-10-21T09:23:28.667Z,4.70
2022-10-21T09:26:01.021Z,4.00
2022-10-21T09:28:30.414Z,4.32
2022-10-21T09:31:00.568Z,4.63
2022-10-21T09:33:30.350Z,3.78
2022-10-21T09:36:03.670Z,4.45
2022-10-21T09:38:56.560Z,5.18
2022-10-21T09:41:29.620Z,3.97
2022-10-21T09:43:56.468Z,4.20
2022-10-21T09:46:23.111Z,4.90
2022-10-21T09:49:25.806Z,5.00
2022-10-21T09:51:42.553Z,5.18
2022-10-21T09:54:17.733Z,5.03
2022-10-21T09:56:50.039Z,5.20
2022-10-21T09:59:19.445Z,5.18
2022-10-21T10:01:46.662Z,5.32
2022-10-21T10:04:17.007Z,5.03
2022-10-21T10:06:44.951Z,6.18
2022-10-21T10:09:15.341Z,5.25
2022-10-21T10:11:57.044Z,7.32
2022-10-21T10:14:27.242Z,5.78
2022-10-21T10:16:53.769Z,6.22
2022-10-21T10:19:23.368Z,6.40
2022-10-21T10:22:10.429Z,5.88
2022-10-21T10:24:40.450Z,5.90
2022-10-21T10:27:13.954Z,6.25
2022-10-21T10:29:42.195Z,6.28
2022-10-21T10:32:14.449Z,4.05
2022-10-21T10:34:54.093Z,5.90
2022-10-21T10:37:31.299Z,5.38
2022-10-21T10:39:59.896Z,5.03
2022-10-21T10:42:33.549Z,6.05
2022-10-21T10:45:05.691Z,4.28
2022-10-21T10:47:41.867Z,3.72
2022-10-21T10:50:47.283Z,1.85
2022-10-21T10:53:32.907Z,5.53
2022-10-21T10:56:04.636Z,5.57
2022-10-21T10:58:35.726Z,4.68
2022-10-21T11:01:08.512Z,4.30
2022-10-21T11:03:42.334Z,5.07
2022-10-21T11:06:18.065Z,5.22
2022-10-21T11:08:52.487Z,6.20
2022-10-21T11:11:35.726Z,5.97
2022-10-21T11:14:02.337Z,5.03
2022-10-21T11:16:50.539Z,5.78
2022-10-21T11:19:44.421Z,5.22
2022-10-21T11:22:49.046Z,7.03
2022-10-21T11:25:45.901Z,6.45
2022-10-21T11:28:44.308Z,5.97
2022-10-21T11:31:43.913Z,5.78
2022-10-21T11:34:20.206Z,5.78
2022-10-21T11:37:05.745Z,6.03
2022-10-21T11:39:51.545Z,7.80
2022-10-21T11:42:47.024Z,5.60
2022-10-21T11:45:19.362Z,4.68
2022-10-21T11:48:15.163Z,4.50
2022-10-21T11:50:48.532Z,4.20
2022-10-21T11:53:33.324Z,5.35
2022-10-21T11:56:24.670Z,5.33
2022-10-21T12:02:17.390Z,4.10
2022-10-21T12:04:59.129Z,5.68
2022-10-21T12:07:35.418Z,5.20
2022-10-21T12:10:01.799Z,5.10
2022-10-21T12:12:39.622Z,4.50
2022-10-21T12:15:15.115Z,4.07
2022-10-21T12:20:23.964Z,3.97
2022-10-21T12:22:56.910Z,4.25
2022-10-21T12:25:49.271Z,3.75
2022-10-21T12:28:45.851Z,3.42
2022-10-21T12:31:30.257Z,3.17
2022-10-21T12:33:57.802Z,3.55
2022-10-21T12:36:24.172Z,3.83
2022-10-21T12:38:53.728Z,4.07
2022-10-21T12:41:31.758Z,3.55
2022-10-21T12:44:01.163Z,2.88
2022-10-21T12:46:42.337Z,2.65
2022-10-21T12:49:32.350Z,2.35
2022-10-21T12:52:07.912Z,2.75
2022-10-21T12:54:40.605Z,2.78
2022-10-21T12:57:10.730Z,2.20
2022-10-21T12:59:38.285Z,2.58
2022-10-21T13:02:04.637Z,2.28
2022-10-21T13:04:34.200Z,2.53
2022-10-21T13:07:16.641Z,2.28
2022-10-21T13:09:52.296Z,2.25
2022-10-21T13:12:22.919Z,3.08
2022-10-21T13:14:57.752Z,2.80
2022-10-21T13:17:31.089Z,2.42
2022-10-21T13:20:20.070Z,2.45
2022-10-21T13:23:01.909Z,2.50
2022-10-21T13:25:34.607Z,3.00
2022-10-21T13:28:19.644Z,2.35
2022-10-21T13:30:49.158Z,2.20
2022-10-21T13:33:21.908Z,1.90
2022-10-21T13:35:53.557Z,1.83
2022-10-21T13:38:30.710Z,2.40
2022-10-21T13:41:02.779Z,2.30
2022-10-21T13:43:40.689Z,1.23
2022-10-21T13:46:07.314Z,2.70
2022-10-21T13:48:42.434Z,2.28
2022-10-21T13:53:48.088Z,2.95
2022-10-21T13:56:34.948Z,2.47
2022-10-21T13:59:02.095Z,2.60
2022-10-21T14:01:52.558Z,3.20
2022-10-21T14:04:28.230Z,2.28
2022-10-21T14:07:08.123Z,2.38
2022-10-21T14:09:42.845Z,2.58
2022-10-21T14:12:33.683Z,2.42
2022-10-21T14:15:14.131Z,2.80
2022-10-21T14:17:43.995Z,2.80
2022-10-21T14:20:16.419Z,3.67
2022-10-21T14:22:49.921Z,2.92
2022-10-21T14:25:18.448Z,2.67
2022-10-21T14:27:47.109Z,1.90
2022-10-21T14:30:24.680Z,2.33
2022-10-21T14:32:52.222Z,2.45
2022-10-21T14:35:18.600Z,1.40
2022-10-21T14:37:50.418Z,0.82
2022-10-21T14:40:26.662Z,2.67
2022-10-21T14:42:55.072Z,6.35
2022-10-21T14:45:26.488Z,2.55
2022-10-21T14:48:02.448Z,1.92
2022-10-21T14:50:28.951Z,1.95
2022-10-21T14:52:55.674Z,2.92
2022-10-21T14:55:30.012Z,1.85
2022-10-21T14:58:08.591Z,1.70
2022-10-21T15:00:41.446Z,2.00
2022-10-21T15:03:10.433Z,1.92
2022-10-21T15:05:39.706Z,2.20
2022-10-21T15:08:21.407Z,2.28
2022-10-21T15:10:56.804Z,2.22
2022-10-21T15:13:25.452Z,1.55
2022-10-21T15:15:57.562Z,1.90
2022-10-21T15:18:23.983Z,1.95
2022-10-21T15:20:59.546Z,2.30
2022-10-21T15:23:34.178Z,1.90
2022-10-21T15:26:09.062Z,1.80
2022-10-21T15:28:36.477Z,1.70
2022-10-21T15:31:05.090Z,2.22
2022-10-21T15:33:31.564Z,2.13
2022-10-21T15:36:04.829Z,3.40
2022-10-21T15:38:31.358Z,2.40
2022-10-21T15:40:57.899Z,4.50
2022-10-21T15:43:24.312Z,3.70
2022-10-21T15:45:50.851Z,3.15
2022-10-21T15:48:17.313Z,2.83
2022-10-21T15:50:44.414Z,2.75
2022-10-21T15:53:11.242Z,2.97
2022-10-21T15:55:38.631Z,2.70
2022-10-21T15:58:06.229Z,3.15
2022-10-21T16:00:38.645Z,3.33
2022-10-21T16:03:08.042Z,2.30
2022-10-21T16:05:34.904Z,2.38
2022-10-21T16:08:01.388Z,2.17
2022-10-21T16:10:37.161Z,2.38
2022-10-21T16:13:04.305Z,2.20
2022-10-21T16:15:30.724Z,2.13
2022-10-21T16:17:58.114Z,1.83
2022-10-21T16:20:30.160Z,1.80
2022-10-21T16:23:00.518Z,2.00
2022-10-21T16:25:29.443Z,1.70
2022-10-21T16:27:56.674Z,2.15
2022-10-21T16:30:32.497Z,2.08
2022-10-21T16:32:58.913Z,2.22
2022-10-21T16:35:25.416Z,2.00
2022-10-21T16:37:51.928Z,2.30
2022-10-21T16:40:21.466Z,2.20
2022-10-21T16:42:49.246Z,2.67
2022-10-21T16:45:16.610Z,3.25
2022-10-21T16:47:48.152Z,3.88
2022-10-21T16:50:19.544Z,3.05
2022-10-21T16:52:46.059Z,6.90
2022-10-21T16:55:13.338Z,5.32
2022-10-21T16:57:40.074Z,7.15
2022-10-21T17:00:07.376Z,9.27
2022-10-21T17:02:37.946Z,7.20
2022-10-21T17:05:12.657Z,5.40
2022-10-21T17:07:39.199Z,4.35
2022-10-21T17:10:06.153Z,4.45
2022-10-21T17:12:33.938Z,4.65
2022-10-21T17:15:01.227Z,4.43
2022-10-21T17:17:27.765Z,5.40
2022-10-21T17:19:54.277Z,6.45
2022-10-21T17:22:20.781Z,5.03
2022-10-21T17:24:48.330Z,4.80
2022-10-21T17:27:19.575Z,5.43
2022-10-21T17:29:46.599Z,5.35
2022-10-21T17:32:13.390Z,6.38
2022-10-21T17:34:40.313Z,7.25
2022-10-21T17:37:08.508Z,5.95
2022-10-21T17:39:34.994Z,5.40
2022-10-21T17:42:01.942Z,6.65
2022-10-21T17:44:28.914Z,6.20
2022-10-21T17:46:55.520Z,6.53
2022-10-21T17:49:24.001Z,5.05
2022-10-21T17:51:51.218Z,5.13
2022-10-21T17:54:21.413Z,5.20
2022-10-21T17:56:51.643Z,6.78
2022-10-21T17:59:18.555Z,6.70
2022-10-21T18:01:45.693Z,12.60
2022-10-21T18:04:12.631Z,6.20
2022-10-21T18:06:39.860Z,6.80
2022-10-21T18:09:08.364Z,7.70
2022-10-21T18:11:36.099Z,7.25
2022-10-21T18:14:02.626Z,6.18
2022-10-21T18:16:29.079Z,6.60
2022-10-21T18:19:00.101Z,5.80
2022-10-21T18:21:29.353Z,7.13
2022-10-21T18:23:55.927Z,7.38
2022-10-21T18:26:28.311Z,7.05
2022-10-21T18:29:04.099Z,7.82
2022-10-21T18:31:34.093Z,7.40
2022-10-21T18:34:03.025Z,8.52
2022-10-21T18:36:29.996Z,8.00
2022-10-21T18:38:58.171Z,7.60
2022-10-21T18:41:24.926Z,6.93
2022-10-21T18:43:54.171Z,7.20
2022-10-21T18:46:21.337Z,7.28
2022-10-21T18:48:47.837Z,5.63
2022-10-21T18:51:15.635Z,4.32
2022-10-21T18:53:48.501Z,4.50
2022-10-21T18:56:17.259Z,4.57
2022-10-21T18:58:46.762Z,4.18
2022-10-21T19:01:15.101Z,4.70
2022-10-21T19:03:42.899Z,4.57
2022-10-21T19:06:30.755Z,5.00
2022-10-21T19:09:03.677Z,5.07
2022-10-21T19:11:30.582Z,4.15
2022-10-21T19:14:00.128Z,4.70
2022-10-21T19:16:26.810Z,4.03
2022-10-21T19:18:54.672Z,4.10
2022-10-21T19:21:21.744Z,4.28
2022-10-21T19:23:48.487Z,5.30
2022-10-21T19:26:18.805Z,4.55
2022-10-21T19:28:47.987Z,4.68
2022-10-21T19:31:14.976Z,5.65
2022-10-21T19:33:41.713Z,4.85
2022-10-21T19:36:10.006Z,5.35
2022-10-21T19:38:44.104Z,4.75
2022-10-21T19:41:14.978Z,5.30
2022-10-21T19:43:42.659Z,5.60
2022-10-21T19:46:14.316Z,5.47
2022-10-21T19:48:40.867Z,7.55
2022-10-21T19:51:15.553Z,7.88
2022-10-21T19:53:45.044Z,6.85
2022-10-21T19:56:12.494Z,7.38
2022-10-21T19:58:43.622Z,6.97
2022-10-21T20:01:13.886Z,7.90
2022-10-21T20:03:42.691Z,10.32
2022-10-21T20:08:42.296Z,10.23
2022-10-21T20:11:11.844Z,9.07
2022-10-21T20:13:38.586Z,10.45
2022-10-21T20:16:05.748Z,10.23
2022-10-21T20:18:32.486Z,10.27
2022-10-21T20:20:59.259Z,10.43
2022-10-21T20:23:26.784Z,9.82
2022-10-21T20:25:58.365Z,8.65
2022-10-21T20:28:26.714Z,10.60
2022-10-21T20:30:58.133Z,10.02
2022-10-21T20:33:24.909Z,10.20
2022-10-21T20:35:51.376Z,9.65
2022-10-21T20:38:17.849Z,8.48
2022-10-21T20:40:44.628Z,10.00
2022-10-21T20:43:11.023Z,12.13
2022-10-21T20:45:37.492Z,11.88
2022-10-21T20:48:04.203Z,9.77
2022-10-21T20:50:30.601Z,10.00
2022-10-21T20:52:57.036Z,10.43
2022-10-21T20:55:23.405Z,9.30
2022-10-21T20:57:49.788Z,9.02
2022-10-21T21:00:16.289Z,11.63
2022-10-21T21:02:42.686Z,12.68
2022-10-21T21:05:09.571Z,12.18
2022-10-21T21:07:36.378Z,10.73
2022-10-21T21:10:03.994Z,10.80
2022-10-21T21:12:30.555Z,13.00
2022-10-21T21:14:56.970Z,12.40
2022-10-21T21:17:23.481Z,11.40
2022-10-21T21:19:49.916Z,11.35
2022-10-21T21:22:16.344Z,14.02
2022-10-21T21:24:42.854Z,9.35
2022-10-21T21:27:09.335Z,9.57
2022-10-21T21:29:36.034Z,12.38
2022-10-21T21:32:02.455Z,9.95
2022-10-21T21:34:28.902Z,9.98
2022-10-21T21:36:55.336Z,10.95
2022-10-21T21:39:21.757Z,10.30
2022-10-21T21:41:48.298Z,11.68
2022-10-21T21:44:14.770Z,11.68
2022-10-21T21:46:41.239Z,10.38
2022-10-21T21:49:07.624Z,9.77
2022-10-21T21:51:36.166Z,11.25
2022-10-21T21:54:04.753Z,10.02
2022-10-21T21:56:31.270Z,10.00
2022-10-21T21:58:58.139Z,10.60
2022-10-21T22:01:27.780Z,9.63
2022-10-21T22:03:55.185Z,9.70
2022-10-21T22:08:51.514Z,9.13
2022-10-21T22:11:20.838Z,10.50
2022-10-21T22:13:47.674Z,10.18
2022-10-21T22:16:15.934Z,10.48
2022-10-21T22:18:43.115Z,10.10
2022-10-21T22:21:12.717Z,10.73
2022-10-21T22:23:40.327Z,9.77
2022-10-21T22:26:07.568Z,10.00
2022-10-21T22:28:36.975Z,10.38
2022-10-21T22:31:07.177Z,12.30
2022-10-21T22:33:34.530Z,9.02
2022-10-21T22:36:01.551Z,10.05
2022-10-21T22:38:29.360Z,10.98
2022-10-21T22:40:57.897Z,9.25
2022-10-21T22:43:26.059Z,9.65
2022-10-21T22:45:55.270Z,10.35
2022-10-21T22:48:27.756Z,10.00
2022-10-21T22:50:54.530Z,12.48
2022-10-21T22:53:21.093Z,12.23
2022-10-21T22:55:47.563Z,12.63
2022-10-21T22:58:19.848Z,11.82
2022-10-21T23:00:50.056Z,11.48
2022-10-21T23:03:18.449Z,11.68
2022-10-21T23:05:45.199Z,11.43
2022-10-21T23:08:11.685Z,12.88
2022-10-21T23:10:38.239Z,11.77
2022-10-21T23:13:05.975Z,11.45
2022-10-21T23:15:36.290Z,11.63
2022-10-21T23:18:03.091Z,10.65
2022-10-21T23:20:29.684Z,11.23
2022-10-21T23:22:56.143Z,12.38
2022-10-21T23:25:23.149Z,13.52
2022-10-21T23:27:50.240Z,13.55
2022-10-21T23:30:17.810Z,13.48
2022-10-21T23:32:44.886Z,11.10
2022-10-21T23:35:11.320Z,12.32
2022-10-21T23:37:38.175Z,13.60
2022-10-21T23:40:05.774Z,12.38
2022-10-21T23:42:32.208Z,12.05
2022-10-21T23:44:58.601Z,12.82
2022-10-21T23:47:25.134Z,13.43
2022-10-21T23:49:51.540Z,13.75
2022-10-21T23:52:17.923Z,13.18
2022-10-21T23:54:47.295Z,12.48
2022-10-21T23:57:13.711Z,11.60
2022-10-21T23:59:40.116Z,11.18
